sensor_id;sensor_type;location;lat;lon;timestamp;P1;durP1;ratioP1;P2;durP2;ratioP2
52266;SDS011;38223;50.940;4.034;2023-07-08T00:01:20;6.95;;;5.00;;
52266;SDS011;38223;50.940;4.034;2023-07-08T00:03:53;8.13;;;5.75;;
52266;SDS011;38223;50.940;4.034;2023-07-08T00:06:27;5.85;;;4.92;;
52266;SDS011;38223;50.940;4.034;2023-07-08T00:09:00;8.88;;;5.40;;
52266;SDS011;38223;50.940;4.034;2023-07-08T00:11:33;10.20;;;5.03;;
52266;SDS011;38223;50.940;4.034;2023-07-08T00:14:08;8.98;;;5.03;;
52266;SDS011;38223;50.940;4.034;2023-07-08T00:16:38;6.03;;;5.08;;
52266;SDS011;38223;50.940;4.034;2023-07-08T00:19:11;7.83;;;5.10;;
52266;SDS011;38223;50.940;4.034;2023-07-08T00:21:47;5.33;;;4.80;;
52266;SDS011;38223;50.940;4.034;2023-07-08T00:24:18;9.65;;;5.33;;
52266;SDS011;38223;50.940;4.034;2023-07-08T00:26:53;6.22;;;5.30;;
52266;SDS011;38223;50.940;4.034;2023-07-08T00:29:28;5.92;;;5.33;;
52266;SDS011;38223;50.940;4.034;2023-07-08T00:32:00;7.28;;;5.50;;
52266;SDS011;38223;50.940;4.034;2023-07-08T00:34:28;9.30;;;5.22;;
52266;SDS011;38223;50.940;4.034;2023-07-08T00:37:07;5.50;;;4.92;;
52266;SDS011;38223;50.940;4.034;2023-07-08T00:39:36;6.10;;;5.50;;
52266;SDS011;38223;50.940;4.034;2023-07-08T00:42:18;7.60;;;5.05;;
52266;SDS011;38223;50.940;4.034;2023-07-08T00:44:48;10.08;;;5.80;;
52266;SDS011;38223;50.940;4.034;2023-07-08T00:47:21;6.75;;;5.12;;
52266;SDS011;38223;50.940;4.034;2023-07-08T00:49:56;6.42;;;5.05;;
52266;SDS011;38223;50.940;4.034;2023-07-08T00:52:30;8.18;;;5.17;;
52266;SDS011;38223;50.940;4.034;2023-07-08T00:55:07;7.10;;;5.25;;
52266;SDS011;38223;50.940;4.034;2023-07-08T00:57:39;7.22;;;4.90;;
52266;SDS011;38223;50.940;4.034;2023-07-08T01:00:14;5.70;;;4.80;;
52266;SDS011;38223;50.940;4.034;2023-07-08T01:02:46;9.58;;;5.05;;
52266;SDS011;38223;50.940;4.034;2023-07-08T01:05:17;5.53;;;5.00;;
52266;SDS011;38223;50.940;4.034;2023-07-08T01:07:54;7.10;;;5.30;;
52266;SDS011;38223;50.940;4.034;2023-07-08T01:10:24;6.37;;;5.22;;
52266;SDS011;38223;50.940;4.034;2023-07-08T01:12:57;6.40;;;5.00;;
52266;SDS011;38223;50.940;4.034;2023-07-08T01:15:35;8.38;;;5.42;;
52266;SDS011;38223;50.940;4.034;2023-07-08T01:18:02;5.80;;;5.12;;
52266;SDS011;38223;50.940;4.034;2023-07-08T01:20:34;6.65;;;5.47;;
52266;SDS011;38223;50.940;4.034;2023-07-08T01:23:07;5.85;;;5.22;;
52266;SDS011;38223;50.940;4.034;2023-07-08T01:25:43;6.15;;;5.33;;
52266;SDS011;38223;50.940;4.034;2023-07-08T01:28:16;7.47;;;5.53;;
52266;SDS011;38223;50.940;4.034;2023-07-08T01:30:44;7.17;;;5.53;;
52266;SDS011;38223;50.940;4.034;2023-07-08T01:33:21;6.92;;;5.17;;
52266;SDS011;38223;50.940;4.034;2023-07-08T01:35:50;6.22;;;5.62;;
52266;SDS011;38223;50.940;4.034;2023-07-08T01:38:26;5.83;;;5.15;;
52266;SDS011;38223;50.940;4.034;2023-07-08T01:41:05;9.45;;;5.35;;
52266;SDS011;38223;50.940;4.034;2023-07-08T01:43:35;5.97;;;5.45;;
52266;SDS011;38223;50.940;4.034;2023-07-08T01:46:11;8.25;;;5.83;;
52266;SDS011;38223;50.940;4.034;2023-07-08T01:48:40;6.75;;;5.75;;
52266;SDS011;38223;50.940;4.034;2023-07-08T01:51:13;8.18;;;5.70;;
52266;SDS011;38223;50.940;4.034;2023-07-08T01:53:48;7.22;;;6.53;;
52266;SDS011;38223;50.940;4.034;2023-07-08T01:56:17;13.50;;;5.97;;
52266;SDS011;38223;50.940;4.034;2023-07-08T01:58:47;10.18;;;6.08;;
52266;SDS011;38223;50.940;4.034;2023-07-08T02:01:24;7.00;;;6.20;;
52266;SDS011;38223;50.940;4.034;2023-07-08T02:03:54;10.08;;;5.58;;
52266;SDS011;38223;50.940;4.034;2023-07-08T02:06:31;6.87;;;6.22;;
52266;SDS011;38223;50.940;4.034;2023-07-08T02:09:01;8.98;;;5.85;;
52266;SDS011;38223;50.940;4.034;2023-07-08T02:11:33;8.93;;;5.83;;
52266;SDS011;38223;50.940;4.034;2023-07-08T02:14:04;7.03;;;6.12;;
52266;SDS011;38223;50.940;4.034;2023-07-08T02:16:37;6.60;;;5.95;;
52266;SDS011;38223;50.940;4.034;2023-07-08T02:19:07;7.05;;;6.33;;
52266;SDS011;38223;50.940;4.034;2023-07-08T02:21:39;8.40;;;5.97;;
52266;SDS011;38223;50.940;4.034;2023-07-08T02:24:15;7.65;;;5.97;;
52266;SDS011;38223;50.940;4.034;2023-07-08T02:26:45;7.67;;;6.87;;
52266;SDS011;38223;50.940;4.034;2023-07-08T02:29:14;10.85;;;6.17;;
52266;SDS011;38223;50.940;4.034;2023-07-08T02:31:43;9.08;;;6.08;;
52266;SDS011;38223;50.940;4.034;2023-07-08T02:34:14;13.28;;;6.28;;
52266;SDS011;38223;50.940;4.034;2023-07-08T02:36:48;6.87;;;5.70;;
52266;SDS011;38223;50.940;4.034;2023-07-08T02:39:23;10.13;;;6.20;;
52266;SDS011;38223;50.940;4.034;2023-07-08T02:41:52;7.35;;;6.05;;
52266;SDS011;38223;50.940;4.034;2023-07-08T02:44:28;6.83;;;6.22;;
52266;SDS011;38223;50.940;4.034;2023-07-08T02:47:01;9.08;;;6.33;;
52266;SDS011;38223;50.940;4.034;2023-07-08T02:49:33;6.97;;;6.15;;
52266;SDS011;38223;50.940;4.034;2023-07-08T02:52:03;6.20;;;5.58;;
52266;SDS011;38223;50.940;4.034;2023-07-08T02:54:41;7.78;;;5.75;;
52266;SDS011;38223;50.940;4.034;2023-07-08T02:57:13;8.53;;;6.33;;
52266;SDS011;38223;50.940;4.034;2023-07-08T02:59:46;6.90;;;6.20;;
52266;SDS011;38223;50.940;4.034;2023-07-08T03:02:17;6.78;;;6.17;;
52266;SDS011;38223;50.940;4.034;2023-07-08T03:04:51;14.20;;;6.30;;
52266;SDS011;38223;50.940;4.034;2023-07-08T03:07:22;7.60;;;5.87;;
52266;SDS011;38223;50.940;4.034;2023-07-08T03:09:57;6.72;;;6.00;;
52266;SDS011;38223;50.940;4.034;2023-07-08T03:12:27;6.47;;;5.87;;
52266;SDS011;38223;50.940;4.034;2023-07-08T03:15:00;8.15;;;6.03;;
52266;SDS011;38223;50.940;4.034;2023-07-08T03:17:29;8.63;;;6.55;;
52266;SDS011;38223;50.940;4.034;2023-07-08T03:20:02;8.70;;;6.08;;
52266;SDS011;38223;50.940;4.034;2023-07-08T03:22:33;7.47;;;6.40;;
52266;SDS011;38223;50.940;4.034;2023-07-08T03:25:06;6.78;;;6.10;;
52266;SDS011;38223;50.940;4.034;2023-07-08T03:27:37;7.05;;;6.15;;
52266;SDS011;38223;50.940;4.034;2023-07-08T03:30:09;10.50;;;6.00;;
52266;SDS011;38223;50.940;4.034;2023-07-08T03:32:40;11.55;;;6.17;;
52266;SDS011;38223;50.940;4.034;2023-07-08T03:35:16;8.63;;;6.03;;
52266;SDS011;38223;50.940;4.034;2023-07-08T03:37:45;7.83;;;5.85;;
52266;SDS011;38223;50.940;4.034;2023-07-08T03:40:21;6.40;;;5.80;;
52266;SDS011;38223;50.940;4.034;2023-07-08T03:42:54;6.95;;;6.30;;
52266;SDS011;38223;50.940;4.034;2023-07-08T03:45:25;7.95;;;6.17;;
52266;SDS011;38223;50.940;4.034;2023-07-08T03:47:58;6.60;;;6.00;;
52266;SDS011;38223;50.940;4.034;2023-07-08T03:50:31;8.43;;;6.60;;
52266;SDS011;38223;50.940;4.034;2023-07-08T03:53:02;10.35;;;6.00;;
52266;SDS011;38223;50.940;4.034;2023-07-08T03:55:37;10.08;;;6.20;;
52266;SDS011;38223;50.940;4.034;2023-07-08T03:58:05;11.97;;;6.03;;
52266;SDS011;38223;50.940;4.034;2023-07-08T04:00:37;8.18;;;6.17;;
52266;SDS011;38223;50.940;4.034;2023-07-08T04:03:14;7.30;;;6.53;;
52266;SDS011;38223;50.940;4.034;2023-07-08T04:05:47;9.10;;;6.30;;
52266;SDS011;38223;50.940;4.034;2023-07-08T04:08:21;7.75;;;6.28;;
52266;SDS011;38223;50.940;4.034;2023-07-08T04:10:54;9.05;;;5.72;;
52266;SDS011;38223;50.940;4.034;2023-07-08T04:15:59;11.03;;;5.85;;
52266;SDS011;38223;50.940;4.034;2023-07-08T04:18:31;6.67;;;6.08;;
52266;SDS011;38223;50.940;4.034;2023-07-08T04:21:05;6.33;;;5.72;;
52266;SDS011;38223;50.940;4.034;2023-07-08T04:23:35;8.78;;;6.33;;
52266;SDS011;38223;50.940;4.034;2023-07-08T04:26:12;18.25;;;6.83;;
52266;SDS011;38223;50.940;4.034;2023-07-08T04:28:41;11.28;;;6.37;;
52266;SDS011;38223;50.940;4.034;2023-07-08T04:31:14;9.00;;;6.60;;
52266;SDS011;38223;50.940;4.034;2023-07-08T04:33:44;10.45;;;6.97;;
52266;SDS011;38223;50.940;4.034;2023-07-08T04:36:17;6.97;;;6.30;;
52266;SDS011;38223;50.940;4.034;2023-07-08T04:38:47;14.85;;;6.83;;
52266;SDS011;38223;50.940;4.034;2023-07-08T04:41:22;7.20;;;6.50;;
52266;SDS011;38223;50.940;4.034;2023-07-08T04:43:53;11.05;;;6.50;;
52266;SDS011;38223;50.940;4.034;2023-07-08T04:46:27;9.53;;;6.60;;
52266;SDS011;38223;50.940;4.034;2023-07-08T04:48:58;10.23;;;6.85;;
52266;SDS011;38223;50.940;4.034;2023-07-08T04:51:29;8.38;;;6.97;;
52266;SDS011;38223;50.940;4.034;2023-07-08T04:53:59;9.40;;;6.75;;
52266;SDS011;38223;50.940;4.034;2023-07-08T04:56:44;7.92;;;6.58;;
52266;SDS011;38223;50.940;4.034;2023-07-08T04:59:18;8.28;;;6.45;;
52266;SDS011;38223;50.940;4.034;2023-07-08T05:01:52;8.65;;;6.25;;
52266;SDS011;38223;50.940;4.034;2023-07-08T05:04:22;8.58;;;6.80;;
52266;SDS011;38223;50.940;4.034;2023-07-08T05:06:58;9.55;;;6.83;;
52266;SDS011;38223;50.940;4.034;2023-07-08T05:09:27;7.15;;;5.97;;
52266;SDS011;38223;50.940;4.034;2023-07-08T05:11:59;8.97;;;6.80;;
52266;SDS011;38223;50.940;4.034;2023-07-08T05:14:29;9.70;;;7.00;;
52266;SDS011;38223;50.940;4.034;2023-07-08T05:17:03;6.97;;;6.15;;
52266;SDS011;38223;50.940;4.034;2023-07-08T05:19:32;10.32;;;7.05;;
52266;SDS011;38223;50.940;4.034;2023-07-08T05:22:06;8.15;;;6.42;;
52266;SDS011;38223;50.940;4.034;2023-07-08T05:24:35;6.92;;;6.33;;
52266;SDS011;38223;50.940;4.034;2023-07-08T05:27:10;8.75;;;6.45;;
52266;SDS011;38223;50.940;4.034;2023-07-08T05:29:40;6.78;;;6.12;;
52266;SDS011;38223;50.940;4.034;2023-07-08T05:32:12;7.78;;;6.85;;
52266;SDS011;38223;50.940;4.034;2023-07-08T05:34:42;9.15;;;6.58;;
52266;SDS011;38223;50.940;4.034;2023-07-08T05:37:18;10.72;;;6.45;;
52266;SDS011;38223;50.940;4.034;2023-07-08T05:39:49;12.13;;;6.37;;
52266;SDS011;38223;50.940;4.034;2023-07-08T05:42:24;11.40;;;6.45;;
52266;SDS011;38223;50.940;4.034;2023-07-08T05:44:55;8.18;;;6.05;;
52266;SDS011;38223;50.940;4.034;2023-07-08T05:47:33;8.48;;;6.92;;
52266;SDS011;38223;50.940;4.034;2023-07-08T05:50:03;9.28;;;6.35;;
52266;SDS011;38223;50.940;4.034;2023-07-08T05:52:37;8.38;;;6.28;;
52266;SDS011;38223;50.940;4.034;2023-07-08T05:55:06;7.75;;;5.90;;
52266;SDS011;38223;50.940;4.034;2023-07-08T05:57:41;9.93;;;6.60;;
52266;SDS011;38223;50.940;4.034;2023-07-08T06:00:09;10.50;;;6.25;;
52266;SDS011;38223;50.940;4.034;2023-07-08T06:02:44;7.92;;;6.42;;
52266;SDS011;38223;50.940;4.034;2023-07-08T06:05:16;10.93;;;6.15;;
52266;SDS011;38223;50.940;4.034;2023-07-08T06:07:48;7.90;;;6.00;;
52266;SDS011;38223;50.940;4.034;2023-07-08T06:10:20;9.93;;;6.30;;
52266;SDS011;38223;50.940;4.034;2023-07-08T06:12:54;7.70;;;7.00;;
52266;SDS011;38223;50.940;4.034;2023-07-08T06:15:24;10.15;;;6.70;;
52266;SDS011;38223;50.940;4.034;2023-07-08T06:18:01;9.30;;;6.78;;
52266;SDS011;38223;50.940;4.034;2023-07-08T06:20:39;8.78;;;6.80;;
52266;SDS011;38223;50.940;4.034;2023-07-08T06:23:09;7.45;;;6.75;;
52266;SDS011;38223;50.940;4.034;2023-07-08T06:25:46;9.80;;;6.30;;
52266;SDS011;38223;50.940;4.034;2023-07-08T06:28:16;8.85;;;6.58;;
52266;SDS011;38223;50.940;4.034;2023-07-08T06:30:46;7.05;;;6.30;;
52266;SDS011;38223;50.940;4.034;2023-07-08T06:33:24;12.63;;;6.45;;
52266;SDS011;38223;50.940;4.034;2023-07-08T06:35:55;8.60;;;5.85;;
52266;SDS011;38223;50.940;4.034;2023-07-08T06:38:27;8.20;;;5.53;;
52266;SDS011;38223;50.940;4.034;2023-07-08T06:40:58;8.43;;;6.22;;
52266;SDS011;38223;50.940;4.034;2023-07-08T06:43:28;8.93;;;5.80;;
52266;SDS011;38223;50.940;4.034;2023-07-08T06:46:02;6.25;;;5.70;;
52266;SDS011;38223;50.940;4.034;2023-07-08T06:48:32;7.20;;;5.87;;
52266;SDS011;38223;50.940;4.034;2023-07-08T06:51:04;7.00;;;5.83;;
52266;SDS011;38223;50.940;4.034;2023-07-08T06:53:37;6.72;;;5.92;;
52266;SDS011;38223;50.940;4.034;2023-07-08T06:56:06;7.90;;;6.28;;
52266;SDS011;38223;50.940;4.034;2023-07-08T06:58:41;12.20;;;6.20;;
52266;SDS011;38223;50.940;4.034;2023-07-08T07:01:11;7.72;;;5.75;;
52266;SDS011;38223;50.940;4.034;2023-07-08T07:03:39;8.73;;;6.53;;
52266;SDS011;38223;50.940;4.034;2023-07-08T07:06:17;9.00;;;7.50;;
52266;SDS011;38223;50.940;4.034;2023-07-08T07:08:47;6.83;;;5.85;;
52266;SDS011;38223;50.940;4.034;2023-07-08T07:11:19;6.30;;;5.72;;
52266;SDS011;38223;50.940;4.034;2023-07-08T07:13:54;8.10;;;5.80;;
52266;SDS011;38223;50.940;4.034;2023-07-08T07:16:26;7.97;;;5.80;;
52266;SDS011;38223;50.940;4.034;2023-07-08T07:18:59;6.03;;;5.15;;
52266;SDS011;38223;50.940;4.034;2023-07-08T07:21:28;9.40;;;6.05;;
52266;SDS011;38223;50.940;4.034;2023-07-08T07:23:59;7.45;;;5.47;;
52266;SDS011;38223;50.940;4.034;2023-07-08T07:26:29;9.60;;;5.97;;
52266;SDS011;38223;50.940;4.034;2023-07-08T07:28:58;6.10;;;5.50;;
52266;SDS011;38223;50.940;4.034;2023-07-08T07:31:30;7.33;;;6.40;;
52266;SDS011;38223;50.940;4.034;2023-07-08T07:34:02;6.60;;;6.00;;
52266;SDS011;38223;50.940;4.034;2023-07-08T07:36:35;6.75;;;6.15;;
52266;SDS011;38223;50.940;4.034;2023-07-08T07:39:08;8.70;;;6.10;;
52266;SDS011;38223;50.940;4.034;2023-07-08T07:41:37;8.78;;;6.47;;
52266;SDS011;38223;50.940;4.034;2023-07-08T07:44:13;6.60;;;6.00;;
52266;SDS011;38223;50.940;4.034;2023-07-08T07:46:43;8.18;;;6.35;;
52266;SDS011;38223;50.940;4.034;2023-07-08T07:49:16;10.18;;;8.13;;
52266;SDS011;38223;50.940;4.034;2023-07-08T07:51:44;9.43;;;7.20;;
52266;SDS011;38223;50.940;4.034;2023-07-08T07:54:18;11.43;;;7.60;;
52266;SDS011;38223;50.940;4.034;2023-07-08T07:56:45;8.03;;;7.22;;
52266;SDS011;38223;50.940;4.034;2023-07-08T07:59:22;9.88;;;6.60;;
52266;SDS011;38223;50.940;4.034;2023-07-08T08:01:52;11.55;;;7.35;;
52266;SDS011;38223;50.940;4.034;2023-07-08T08:04:24;7.47;;;6.75;;
52266;SDS011;38223;50.940;4.034;2023-07-08T08:07:02;7.15;;;6.55;;
52266;SDS011;38223;50.940;4.034;2023-07-08T08:09:35;12.20;;;6.62;;
52266;SDS011;38223;50.940;4.034;2023-07-08T08:12:07;7.25;;;6.55;;
52266;SDS011;38223;50.940;4.034;2023-07-08T08:14:40;9.55;;;6.58;;
52266;SDS011;38223;50.940;4.034;2023-07-08T08:17:14;7.42;;;6.58;;
52266;SDS011;38223;50.940;4.034;2023-07-08T08:19:44;9.78;;;6.55;;
52266;SDS011;38223;50.940;4.034;2023-07-08T08:22:15;8.20;;;6.58;;
52266;SDS011;38223;50.940;4.034;2023-07-08T08:24:49;9.28;;;6.90;;
52266;SDS011;38223;50.940;4.034;2023-07-08T08:27:20;6.80;;;6.12;;
52266;SDS011;38223;50.940;4.034;2023-07-08T08:29:56;12.95;;;7.87;;
52266;SDS011;38223;50.940;4.034;2023-07-08T08:32:26;9.00;;;6.78;;
52266;SDS011;38223;50.940;4.034;2023-07-08T08:35:00;8.60;;;7.25;;
52266;SDS011;38223;50.940;4.034;2023-07-08T08:37:29;10.38;;;6.75;;
52266;SDS011;38223;50.940;4.034;2023-07-08T08:40:03;9.98;;;6.62;;
52266;SDS011;38223;50.940;4.034;2023-07-08T08:42:40;9.90;;;7.08;;
52266;SDS011;38223;50.940;4.034;2023-07-08T08:45:20;9.50;;;6.92;;
52266;SDS011;38223;50.940;4.034;2023-07-08T08:47:51;7.53;;;6.90;;
52266;SDS011;38223;50.940;4.034;2023-07-08T08:50:30;9.30;;;7.25;;
52266;SDS011;38223;50.940;4.034;2023-07-08T08:53:17;9.25;;;6.95;;
52266;SDS011;38223;50.940;4.034;2023-07-08T08:55:53;9.63;;;6.55;;
52266;SDS011;38223;50.940;4.034;2023-07-08T08:58:36;11.48;;;6.70;;
52266;SDS011;38223;50.940;4.034;2023-07-08T09:01:17;7.60;;;6.80;;
52266;SDS011;38223;50.940;4.034;2023-07-08T09:03:49;8.63;;;7.17;;
52266;SDS011;38223;50.940;4.034;2023-07-08T09:06:27;11.48;;;7.00;;
52266;SDS011;38223;50.940;4.034;2023-07-08T09:08:57;8.90;;;6.80;;
52266;SDS011;38223;50.940;4.034;2023-07-08T09:11:36;7.75;;;7.03;;
52266;SDS011;38223;50.940;4.034;2023-07-08T09:14:17;8.53;;;6.90;;
52266;SDS011;38223;50.940;4.034;2023-07-08T09:19:45;9.10;;;7.53;;
52266;SDS011;38223;50.940;4.034;2023-07-08T09:22:31;8.30;;;7.58;;
52266;SDS011;38223;50.940;4.034;2023-07-08T09:25:12;11.22;;;7.30;;
52266;SDS011;38223;50.940;4.034;2023-07-08T09:27:50;8.25;;;7.30;;
52266;SDS011;38223;50.940;4.034;2023-07-08T09:30:21;11.25;;;6.65;;
52266;SDS011;38223;50.940;4.034;2023-07-08T09:32:57;8.73;;;7.92;;
52266;SDS011;38223;50.940;4.034;2023-07-08T09:35:27;7.33;;;6.62;;
52266;SDS011;38223;50.940;4.034;2023-07-08T09:38:02;14.30;;;7.45;;
52266;SDS011;38223;50.940;4.034;2023-07-08T09:40:33;7.97;;;7.28;;
52266;SDS011;38223;50.940;4.034;2023-07-08T09:43:09;9.78;;;6.70;;
52266;SDS011;38223;50.940;4.034;2023-07-08T09:45:46;9.08;;;7.20;;
52266;SDS011;38223;50.940;4.034;2023-07-08T09:48:24;9.08;;;7.40;;
52266;SDS011;38223;50.940;4.034;2023-07-08T09:51:01;8.20;;;7.40;;
52266;SDS011;38223;50.940;4.034;2023-07-08T09:53:30;6.72;;;6.12;;
52266;SDS011;38223;50.940;4.034;2023-07-08T09:56:04;8.45;;;6.45;;
52266;SDS011;38223;50.940;4.034;2023-07-08T09:58:36;9.45;;;6.00;;
52266;SDS011;38223;50.940;4.034;2023-07-08T10:01:12;7.50;;;5.47;;
52266;SDS011;38223;50.940;4.034;2023-07-08T10:03:46;9.55;;;5.97;;
52266;SDS011;38223;50.940;4.034;2023-07-08T10:06:22;9.70;;;5.53;;
52266;SDS011;38223;50.940;4.034;2023-07-08T10:09:00;12.25;;;6.40;;
52266;SDS011;38223;50.940;4.034;2023-07-08T10:11:44;8.20;;;6.65;;
52266;SDS011;38223;50.940;4.034;2023-07-08T10:14:11;7.35;;;6.37;;
52266;SDS011;38223;50.940;4.034;2023-07-08T10:16:57;8.60;;;6.55;;
52266;SDS011;38223;50.940;4.034;2023-07-08T10:19:29;8.75;;;6.67;;
52266;SDS011;38223;50.940;4.034;2023-07-08T10:27:46;8.88;;;6.53;;
52266;SDS011;38223;50.940;4.034;2023-07-08T10:30:26;6.33;;;5.72;;
52266;SDS011;38223;50.940;4.034;2023-07-08T10:33:14;9.20;;;6.25;;
52266;SDS011;38223;50.940;4.034;2023-07-08T10:35:54;8.03;;;5.92;;
52266;SDS011;38223;50.940;4.034;2023-07-08T10:43:53;7.58;;;6.05;;
52266;SDS011;38223;50.940;4.034;2023-07-08T10:49:26;7.83;;;7.08;;
52266;SDS011;38223;50.940;4.034;2023-07-08T10:52:04;7.35;;;6.55;;
52266;SDS011;38223;50.940;4.034;2023-07-08T11:01:59;7.58;;;6.33;;
52266;SDS011;38223;50.940;4.034;2023-07-08T11:09:21;8.68;;;6.20;;
52266;SDS011;38223;50.940;4.034;2023-07-08T11:11:56;7.42;;;6.58;;
52266;SDS011;38223;50.940;4.034;2023-07-08T11:14:37;10.25;;;7.05;;
52266;SDS011;38223;50.940;4.034;2023-07-08T11:17:10;9.23;;;6.72;;
52266;SDS011;38223;50.940;4.034;2023-07-08T11:19:45;7.87;;;7.17;;
52266;SDS011;38223;50.940;4.034;2023-07-08T11:22:20;9.23;;;7.12;;
52266;SDS011;38223;50.940;4.034;2023-07-08T11:24:51;12.40;;;6.97;;
52266;SDS011;38223;50.940;4.034;2023-07-08T11:27:34;8.03;;;6.58;;
52266;SDS011;38223;50.940;4.034;2023-07-08T11:30:12;7.47;;;6.80;;
52266;SDS011;38223;50.940;4.034;2023-07-08T11:32:50;10.82;;;6.95;;
52266;SDS011;38223;50.940;4.034;2023-07-08T11:35:23;9.18;;;7.30;;
52266;SDS011;38223;50.940;4.034;2023-07-08T11:38:15;14.03;;;7.15;;
52266;SDS011;38223;50.940;4.034;2023-07-08T11:40:52;9.58;;;7.35;;
52266;SDS011;38223;50.940;4.034;2023-07-08T11:43:25;7.65;;;6.90;;
52266;SDS011;38223;50.940;4.034;2023-07-08T11:46:02;9.10;;;7.40;;
52266;SDS011;38223;50.940;4.034;2023-07-08T11:48:30;10.18;;;6.92;;
52266;SDS011;38223;50.940;4.034;2023-07-08T11:51:07;9.35;;;7.08;;
52266;SDS011;38223;50.940;4.034;2023-07-08T11:53:38;11.35;;;7.55;;
52266;SDS011;38223;50.940;4.034;2023-07-08T11:56:22;7.87;;;7.15;;
52266;SDS011;38223;50.940;4.034;2023-07-08T11:59:03;8.25;;;6.60;;
52266;SDS011;38223;50.940;4.034;2023-07-08T12:01:48;9.18;;;7.08;;
52266;SDS011;38223;50.940;4.034;2023-07-08T12:04:28;9.38;;;7.12;;
52266;SDS011;38223;50.940;4.034;2023-07-08T12:07:12;8.88;;;6.87;;
52266;SDS011;38223;50.940;4.034;2023-07-08T12:09:47;8.58;;;7.67;;
52266;SDS011;38223;50.940;4.034;2023-07-08T12:12:40;8.15;;;7.22;;
52266;SDS011;38223;50.940;4.034;2023-07-08T12:17:46;6.58;;;5.97;;
52266;SDS011;38223;50.940;4.034;2023-07-08T12:20:19;11.93;;;6.25;;
52266;SDS011;38223;50.940;4.034;2023-07-08T12:22:56;10.13;;;5.70;;
52266;SDS011;38223;50.940;4.034;2023-07-08T12:25:33;9.18;;;6.15;;
52266;SDS011;38223;50.940;4.034;2023-07-08T12:28:02;9.35;;;6.17;;
52266;SDS011;38223;50.940;4.034;2023-07-08T12:30:43;11.20;;;6.08;;
52266;SDS011;38223;50.940;4.034;2023-07-08T12:33:27;8.08;;;5.40;;
52266;SDS011;38223;50.940;4.034;2023-07-08T12:35:54;8.00;;;5.30;;
52266;SDS011;38223;50.940;4.034;2023-07-08T12:38:30;8.90;;;5.30;;
52266;SDS011;38223;50.940;4.034;2023-07-08T12:41:03;10.53;;;5.60;;
52266;SDS011;38223;50.940;4.034;2023-07-08T12:43:43;6.53;;;5.83;;
52266;SDS011;38223;50.940;4.034;2023-07-08T12:46:14;6.55;;;5.70;;
52266;SDS011;38223;50.940;4.034;2023-07-08T12:48:51;8.80;;;5.58;;
52266;SDS011;38223;50.940;4.034;2023-07-08T12:51:26;11.95;;;5.97;;
52266;SDS011;38223;50.940;4.034;2023-07-08T12:53:54;6.58;;;5.67;;
52266;SDS011;38223;50.940;4.034;2023-07-08T12:56:28;7.22;;;5.80;;
52266;SDS011;38223;50.940;4.034;2023-07-08T12:58:59;7.87;;;6.20;;
52266;SDS011;38223;50.940;4.034;2023-07-08T13:01:28;6.60;;;6.00;;
52266;SDS011;38223;50.940;4.034;2023-07-08T13:04:06;7.83;;;5.70;;
52266;SDS011;38223;50.940;4.034;2023-07-08T13:06:33;8.48;;;6.00;;
52266;SDS011;38223;50.940;4.034;2023-07-08T13:09:17;6.83;;;6.12;;
52266;SDS011;38223;50.940;4.034;2023-07-08T13:14:29;10.58;;;7.58;;
52266;SDS011;38223;50.940;4.034;2023-07-08T13:17:00;10.28;;;6.58;;
52266;SDS011;38223;50.940;4.034;2023-07-08T13:19:33;7.47;;;5.35;;
52266;SDS011;38223;50.940;4.034;2023-07-08T13:22:05;6.90;;;6.00;;
52266;SDS011;38223;50.940;4.034;2023-07-08T13:24:40;6.78;;;6.03;;
52266;SDS011;38223;50.940;4.034;2023-07-08T13:27:13;9.03;;;6.03;;
52266;SDS011;38223;50.940;4.034;2023-07-08T13:29:43;7.78;;;5.25;;
52266;SDS011;38223;50.940;4.034;2023-07-08T13:32:20;9.83;;;5.80;;
52266;SDS011;38223;50.940;4.034;2023-07-08T13:34:52;9.85;;;5.45;;
52266;SDS011;38223;50.940;4.034;2023-07-08T13:37:25;16.73;;;6.25;;
52266;SDS011;38223;50.940;4.034;2023-07-08T13:40:01;8.48;;;5.65;;
52266;SDS011;38223;50.940;4.034;2023-07-08T13:42:29;9.58;;;6.12;;
52266;SDS011;38223;50.940;4.034;2023-07-08T13:45:04;8.53;;;5.55;;
52266;SDS011;38223;50.940;4.034;2023-07-08T13:47:37;9.70;;;6.12;;
52266;SDS011;38223;50.940;4.034;2023-07-08T13:50:18;10.63;;;5.42;;
52266;SDS011;38223;50.940;4.034;2023-07-08T13:52:45;6.67;;;5.60;;
52266;SDS011;38223;50.940;4.034;2023-07-08T13:55:18;12.10;;;6.00;;
52266;SDS011;38223;50.940;4.034;2023-07-08T13:57:59;6.62;;;5.87;;
52266;SDS011;38223;50.940;4.034;2023-07-08T14:00:28;11.18;;;5.83;;
52266;SDS011;38223;50.940;4.034;2023-07-08T14:03:00;8.75;;;6.40;;
52266;SDS011;38223;50.940;4.034;2023-07-08T14:05:30;10.23;;;5.87;;
52266;SDS011;38223;50.940;4.034;2023-07-08T14:10:31;11.53;;;6.00;;
52266;SDS011;38223;50.940;4.034;2023-07-08T14:13:04;6.37;;;5.67;;
52266;SDS011;38223;50.940;4.034;2023-07-08T14:15:34;6.65;;;5.80;;
52266;SDS011;38223;50.940;4.034;2023-07-08T14:18:08;8.25;;;6.10;;
52266;SDS011;38223;50.940;4.034;2023-07-08T14:20:37;8.30;;;5.70;;
52266;SDS011;38223;50.940;4.034;2023-07-08T14:23:10;11.30;;;5.85;;
52266;SDS011;38223;50.940;4.034;2023-07-08T14:25:45;10.03;;;5.72;;
52266;SDS011;38223;50.940;4.034;2023-07-08T14:28:15;9.85;;;5.90;;
52266;SDS011;38223;50.940;4.034;2023-07-08T14:30:48;12.73;;;6.15;;
52266;SDS011;38223;50.940;4.034;2023-07-08T14:33:20;6.78;;;5.70;;
52266;SDS011;38223;50.940;4.034;2023-07-08T14:35:50;6.85;;;5.75;;
52266;SDS011;38223;50.940;4.034;2023-07-08T14:38:23;9.40;;;5.58;;
52266;SDS011;38223;50.940;4.034;2023-07-08T14:40:56;7.47;;;6.17;;
52266;SDS011;38223;50.940;4.034;2023-07-08T14:43:29;6.97;;;5.83;;
52266;SDS011;38223;50.940;4.034;2023-07-08T14:46:02;6.60;;;5.78;;
52266;SDS011;38223;50.940;4.034;2023-07-08T14:48:33;9.43;;;5.70;;
52266;SDS011;38223;50.940;4.034;2023-07-08T14:51:05;8.23;;;6.42;;
52266;SDS011;38223;50.940;4.034;2023-07-08T14:53:35;9.00;;;5.90;;
52266;SDS011;38223;50.940;4.034;2023-07-08T14:56:08;7.10;;;5.75;;
52266;SDS011;38223;50.940;4.034;2023-07-08T14:58:38;10.80;;;6.50;;
52266;SDS011;38223;50.940;4.034;2023-07-08T15:01:17;6.62;;;5.78;;
52266;SDS011;38223;50.940;4.034;2023-07-08T15:03:43;9.00;;;5.83;;
52266;SDS011;38223;50.940;4.034;2023-07-08T15:06:13;8.93;;;6.12;;
52266;SDS011;38223;50.940;4.034;2023-07-08T15:08:48;6.90;;;6.00;;
52266;SDS011;38223;50.940;4.034;2023-07-08T15:11:18;10.10;;;5.80;;
52266;SDS011;38223;50.940;4.034;2023-07-08T15:13:57;9.33;;;5.58;;
52266;SDS011;38223;50.940;4.034;2023-07-08T15:16:27;6.45;;;5.67;;
52266;SDS011;38223;50.940;4.034;2023-07-08T15:18:57;8.80;;;5.55;;
52266;SDS011;38223;50.940;4.034;2023-07-08T15:23:59;8.15;;;5.78;;
52266;SDS011;38223;50.940;4.034;2023-07-08T15:26:32;7.20;;;5.40;;
52266;SDS011;38223;50.940;4.034;2023-07-08T15:29:03;10.03;;;5.60;;
52266;SDS011;38223;50.940;4.034;2023-07-08T15:31:36;10.08;;;5.80;;
52266;SDS011;38223;50.940;4.034;2023-07-08T15:34:17;11.73;;;5.33;;
52266;SDS011;38223;50.940;4.034;2023-07-08T15:36:49;7.08;;;5.75;;
52266;SDS011;38223;50.940;4.034;2023-07-08T15:39:23;7.08;;;5.37;;
52266;SDS011;38223;50.940;4.034;2023-07-08T15:41:56;6.03;;;5.42;;
52266;SDS011;38223;50.940;4.034;2023-07-08T15:44:26;7.60;;;5.67;;
52266;SDS011;38223;50.940;4.034;2023-07-08T15:46:58;7.08;;;5.70;;
52266;SDS011;38223;50.940;4.034;2023-07-08T15:49:34;6.75;;;5.12;;
52266;SDS011;38223;50.940;4.034;2023-07-08T15:52:05;7.95;;;4.83;;
52266;SDS011;38223;50.940;4.034;2023-07-08T15:54:39;6.40;;;5.30;;
52266;SDS011;38223;50.940;4.034;2023-07-08T15:57:08;8.35;;;4.95;;
52266;SDS011;38223;50.940;4.034;2023-07-08T15:59:44;9.88;;;5.20;;
52266;SDS011;38223;50.940;4.034;2023-07-08T16:02:23;5.87;;;4.90;;
52266;SDS011;38223;50.940;4.034;2023-07-08T16:04:55;5.17;;;4.67;;